createdAt,value
2023-03-10T00:01:20.059Z,20.55
2023-03-10T00:03:49.275Z,20.23
2023-03-10T00:06:19.574Z,21.48
2023-03-10T00:08:48.454Z,26.20
2023-03-10T00:11:16.955Z,16.10
2023-03-10T00:13:45.481Z,17.77
2023-03-10T00:16:19.400Z,16.35
2023-03-10T00:18:48.168Z,20.65
2023-03-10T00:21:17.812Z,22.33
2023-03-10T00:23:46.062Z,22.27
2023-03-10T00:26:15.776Z,28.17
2023-03-10T00:28:44.373Z,25.45
2023-03-10T00:31:16.661Z,22.67
2023-03-10T00:33:45.058Z,18.38
2023-03-10T00:36:15.861Z,18.23
2023-03-10T00:38:45.267Z,20.38
2023-03-10T00:41:14.981Z,25.35
2023-03-10T00:43:43.590Z,22.23
2023-03-10T00:46:12.379Z,20.02
2023-03-10T00:48:42.176Z,18.63
2023-03-10T00:51:10.721Z,18.33
2023-03-10T00:53:41.064Z,20.48
2023-03-10T00:56:13.014Z,22.48
2023-03-10T00:58:41.536Z,24.73
2023-03-10T01:01:15.543Z,16.35
2023-03-10T01:03:46.001Z,18.83
2023-03-10T01:06:14.972Z,18.92
2023-03-10T01:08:44.022Z,19.63
2023-03-10T01:11:15.282Z,18.63
2023-03-10T01:13:43.684Z,18.38
2023-03-10T01:16:12.108Z,18.10
2023-03-10T01:18:40.684Z,20.05
2023-03-10T01:21:17.518Z,18.33
2023-03-10T01:23:45.908Z,20.63
2023-03-10T01:26:14.456Z,21.05
2023-03-10T01:28:43.050Z,19.77
2023-03-10T01:31:11.258Z,20.97
2023-03-10T01:33:41.395Z,19.80
2023-03-10T01:36:11.780Z,16.23
2023-03-10T01:38:40.876Z,13.05
2023-03-10T01:41:09.023Z,15.27
2023-03-10T01:43:39.417Z,15.43
2023-03-10T01:46:56.118Z,10.40
2023-03-10T01:49:38.592Z,13.50
2023-03-10T01:52:11.885Z,16.23
2023-03-10T01:54:49.649Z,14.70
2023-03-10T01:57:20.482Z,11.60
2023-03-10T01:59:48.910Z,11.73
2023-03-10T02:02:17.286Z,14.57
2023-03-10T02:04:48.680Z,11.93
2023-03-10T02:07:22.253Z,13.07
2023-03-10T02:09:52.755Z,13.18
2023-03-10T02:12:22.274Z,11.80
2023-03-10T02:14:52.203Z,9.30
2023-03-10T02:17:22.707Z,11.68
2023-03-10T02:20:16.257Z,7.68
2023-03-10T02:22:46.042Z,7.47
2023-03-10T02:25:26.838Z,8.98
2023-03-10T02:27:57.268Z,8.10
2023-03-10T02:30:30.448Z,10.65
2023-03-10T02:33:02.089Z,9.20
2023-03-10T02:35:30.508Z,9.75
2023-03-10T02:37:59.263Z,8.63
2023-03-10T02:40:34.033Z,11.93
2023-03-10T02:43:06.948Z,8.93
2023-03-10T02:45:38.735Z,10.02
2023-03-10T02:48:08.421Z,6.72
2023-03-10T02:50:40.782Z,7.35
2023-03-10T02:53:15.017Z,9.48
2023-03-10T02:55:43.468Z,10.52
2023-03-10T02:58:13.779Z,9.13
2023-03-10T03:00:43.454Z,7.53
2023-03-10T03:03:12.361Z,6.68
2023-03-10T03:05:40.637Z,9.45
2023-03-10T03:08:09.697Z,6.93
2023-03-10T03:10:39.852Z,7.32
2023-03-10T03:13:08.821Z,5.28
2023-03-10T03:15:38.867Z,8.65
2023-03-10T03:18:07.442Z,8.63
2023-03-10T03:20:38.078Z,5.25
2023-03-10T03:23:06.250Z,7.10
2023-03-10T03:25:37.921Z,7.10
2023-03-10T03:28:07.641Z,6.45
2023-03-10T03:30:37.985Z,4.85
2023-03-10T03:33:07.582Z,6.30
2023-03-10T03:35:37.920Z,8.20
2023-03-10T03:38:06.987Z,6.35
2023-03-10T03:40:37.141Z,4.72
2023-03-10T03:43:06.741Z,6.78
2023-03-10T03:45:35.152Z,6.57
2023-03-10T03:48:05.353Z,6.53
2023-03-10T03:50:33.457Z,7.20
2023-03-10T03:53:01.879Z,5.68
2023-03-10T03:55:30.044Z,6.00
2023-03-10T03:57:58.494Z,6.38
2023-03-10T04:00:26.946Z,5.18
2023-03-10T04:02:55.052Z,5.10
2023-03-10T04:05:24.730Z,4.10
2023-03-10T04:07:52.851Z,4.18
2023-03-10T04:10:23.669Z,6.07
2023-03-10T04:12:51.850Z,5.72
2023-03-10T04:15:20.235Z,5.75
2023-03-10T04:17:48.485Z,2.65
2023-03-10T04:20:16.919Z,2.78
2023-03-10T04:22:46.444Z,3.28
2023-03-10T04:25:15.396Z,6.57
2023-03-10T04:27:43.500Z,4.90
2023-03-10T04:30:14.540Z,1.55
2023-03-10T04:32:42.900Z,5.28
2023-03-10T04:35:14.152Z,5.40
2023-03-10T04:37:44.878Z,6.30
2023-03-10T04:40:16.792Z,5.53
2023-03-10T04:42:45.124Z,3.95
2023-03-10T04:45:14.620Z,5.22
2023-03-10T04:47:42.796Z,5.07
2023-03-10T04:50:12.694Z,3.83
2023-03-10T04:52:40.807Z,5.00
2023-03-10T04:55:10.282Z,4.15
2023-03-10T04:57:39.740Z,4.05
2023-03-10T05:00:10.658Z,4.70
2023-03-10T05:02:39.348Z,4.47
2023-03-10T05:05:08.580Z,4.18
2023-03-10T05:07:36.788Z,5.90
2023-03-10T05:10:05.879Z,5.10
2023-03-10T05:12:34.687Z,5.38
2023-03-10T05:15:04.455Z,2.90
2023-03-10T05:17:32.743Z,3.70
2023-03-10T05:20:00.849Z,4.57
2023-03-10T05:22:29.286Z,3.35
2023-03-10T05:24:57.365Z,2.85
2023-03-10T05:27:25.476Z,4.30
2023-03-10T05:29:53.575Z,3.78
2023-03-10T05:32:23.404Z,3.95
2023-03-10T05:34:51.701Z,3.40
2023-03-10T05:37:20.480Z,3.92
2023-03-10T05:39:48.684Z,3.90
2023-03-10T05:42:16.762Z,3.55
2023-03-10T05:44:45.149Z,4.15
2023-03-10T05:47:14.332Z,4.82
2023-03-10T05:49:43.797Z,3.92
2023-03-10T05:52:12.219Z,5.00
2023-03-10T05:54:40.308Z,1.00
2023-03-10T05:57:08.829Z,2.17
2023-03-10T05:59:37.257Z,3.42
2023-03-10T06:02:05.648Z,4.70
2023-03-10T06:04:33.787Z,3.58
2023-03-10T06:07:03.776Z,2.63
2023-03-10T06:09:33.415Z,3.88
2023-03-10T06:12:01.704Z,4.75
2023-03-10T06:14:29.870Z,3.67
2023-03-10T06:16:58.335Z,4.35
2023-03-10T06:19:27.520Z,3.10
2023-03-10T06:21:55.645Z,3.63
2023-03-10T06:24:25.147Z,4.13
2023-03-10T06:26:53.233Z,2.42
2023-03-10T06:29:21.529Z,4.82
2023-03-10T06:31:50.071Z,4.15
2023-03-10T06:34:18.305Z,3.63
2023-03-10T06:36:46.735Z,2.33
2023-03-10T06:39:14.869Z,2.88
2023-03-10T06:41:44.639Z,2.13
2023-03-10T06:44:19.038Z,2.55
2023-03-10T06:46:47.300Z,3.63
2023-03-10T06:49:15.564Z,2.33
2023-03-10T06:51:43.682Z,3.90
2023-03-10T06:54:11.948Z,3.60
2023-03-10T06:56:40.172Z,2.45
2023-03-10T06:59:10.101Z,4.63
2023-03-10T07:01:39.172Z,4.13
2023-03-10T07:04:07.670Z,2.83
2023-03-10T07:06:36.139Z,3.90
2023-03-10T07:09:04.903Z,6.22
2023-03-10T07:11:33.702Z,6.80
2023-03-10T07:14:01.954Z,5.05
2023-03-10T07:16:31.443Z,4.53
2023-03-10T07:18:59.896Z,4.72
2023-03-10T07:21:28.082Z,4.40
2023-03-10T07:23:56.228Z,3.53
2023-03-10T07:26:24.361Z,3.47
2023-03-10T07:28:52.699Z,3.92
2023-03-10T07:31:21.299Z,4.50
2023-03-10T07:33:51.270Z,4.40
2023-03-10T07:36:21.283Z,4.72
2023-03-10T07:38:49.796Z,4.93
2023-03-10T07:41:19.888Z,3.33
2023-03-10T07:43:48.314Z,2.60
2023-03-10T07:46:17.077Z,7.15
2023-03-10T07:48:45.736Z,3.33
2023-03-10T07:51:15.841Z,4.15
2023-03-10T07:53:44.267Z,4.55
2023-03-10T07:56:14.009Z,3.42
2023-03-10T07:58:43.263Z,5.10
2023-03-10T08:01:16.876Z,4.25
2023-03-10T08:03:45.770Z,4.30
2023-03-10T08:06:19.782Z,6.22
2023-03-10T08:08:47.963Z,4.38
2023-03-10T08:11:16.983Z,5.50
2023-03-10T08:13:47.571Z,7.03
2023-03-10T08:16:17.002Z,4.72
2023-03-10T08:18:45.845Z,4.22
2023-03-10T08:21:14.058Z,4.03
2023-03-10T08:23:43.535Z,4.32
2023-03-10T08:26:15.655Z,4.15
2023-03-10T08:28:44.320Z,3.17
2023-03-10T08:31:13.932Z,3.20
2023-03-10T08:33:42.670Z,3.70
2023-03-10T08:36:13.730Z,4.38
2023-03-10T08:38:44.198Z,4.05
2023-03-10T08:41:15.186Z,3.63
2023-03-10T08:43:43.785Z,3.00
2023-03-10T08:46:13.335Z,3.72
2023-03-10T08:48:43.060Z,4.80
2023-03-10T08:51:14.435Z,4.70
2023-03-10T08:53:48.031Z,5.65
2023-03-10T08:56:16.858Z,5.50
2023-03-10T08:58:45.303Z,5.82
2023-03-10T09:01:13.490Z,4.88
2023-03-10T09:03:43.935Z,3.00
2023-03-10T09:06:12.425Z,6.15
2023-03-10T09:08:41.581Z,4.40
2023-03-10T09:11:15.527Z,6.03
2023-03-10T09:13:43.645Z,4.30
2023-03-10T09:16:13.846Z,3.83
2023-03-10T09:18:42.524Z,4.88
2023-03-10T09:21:13.539Z,5.18
2023-03-10T09:23:43.020Z,2.83
2023-03-10T09:26:12.918Z,3.38
2023-03-10T09:28:41.380Z,1.63
2023-03-10T09:31:12.066Z,2.50
2023-03-10T09:33:41.139Z,5.72
2023-03-10T09:36:10.206Z,1.60
2023-03-10T09:38:38.381Z,3.33
2023-03-10T09:41:23.195Z,4.57
2023-03-10T09:43:57.553Z,6.40
2023-03-10T09:46:29.818Z,4.88
2023-03-10T09:49:05.435Z,2.83
2023-03-10T09:51:33.848Z,2.10
2023-03-10T09:54:20.866Z,4.00
2023-03-10T09:56:50.630Z,2.90
2023-03-10T09:59:26.216Z,2.35
2023-03-10T10:01:55.190Z,3.80
2023-03-10T10:04:29.858Z,2.83
2023-03-10T10:06:59.607Z,3.20
2023-03-10T10:09:34.903Z,3.65
2023-03-10T10:12:12.463Z,3.42
2023-03-10T10:14:48.081Z,4.32
2023-03-10T10:17:39.383Z,4.35
2023-03-10T10:20:21.610Z,4.68
2023-03-10T10:22:50.223Z,5.57
2023-03-10T10:25:22.029Z,5.93
2023-03-10T10:27:54.054Z,5.80
2023-03-10T10:30:34.213Z,4.63
2023-03-10T10:33:03.985Z,4.32
2023-03-10T10:35:34.277Z,4.28
2023-03-10T10:38:05.865Z,3.58
2023-03-10T10:40:36.335Z,3.25
2023-03-10T10:43:07.796Z,2.92
2023-03-10T10:45:39.159Z,3.95
2023-03-10T10:48:07.699Z,3.00
2023-03-10T10:50:37.643Z,3.53
2023-03-10T10:53:21.593Z,2.63
2023-03-10T10:56:01.530Z,5.97
2023-03-10T10:58:34.986Z,6.35
2023-03-10T11:01:05.329Z,3.03
2023-03-10T11:03:36.798Z,3.60
2023-03-10T11:06:15.930Z,4.18
2023-03-10T11:08:50.748Z,5.40
2023-03-10T11:11:25.359Z,7.80
2023-03-10T11:14:10.224Z,3.63
2023-03-10T11:16:49.337Z,3.97
2023-03-10T11:19:29.476Z,4.20
2023-03-10T11:22:05.040Z,4.75
2023-03-10T11:24:39.666Z,5.38
2023-03-10T11:27:14.993Z,3.75
2023-03-10T11:30:00.615Z,2.70
2023-03-10T11:32:38.298Z,3.65
2023-03-10T11:35:20.229Z,5.53
2023-03-10T11:37:53.123Z,5.45
2023-03-10T11:40:27.631Z,2.95
2023-03-10T11:43:02.438Z,2.53
2023-03-10T11:45:39.794Z,3.53
2023-03-10T11:48:26.560Z,3.15
2023-03-10T11:50:59.220Z,1.70
2023-03-10T11:53:35.899Z,2.33
2023-03-10T11:56:05.499Z,3.05
2023-03-10T11:58:42.146Z,2.10
2023-03-10T12:01:16.173Z,2.55
2023-03-10T12:03:51.909Z,1.67
2023-03-10T12:06:26.801Z,3.30
2023-03-10T12:08:57.388Z,2.15
2023-03-10T12:11:27.793Z,2.63
2023-03-10T12:14:00.622Z,2.40
2023-03-10T12:16:33.185Z,2.28
2023-03-10T12:19:01.396Z,2.88
2023-03-10T12:21:31.505Z,2.88
2023-03-10T12:24:01.484Z,2.92
2023-03-10T12:27:01.742Z,2.70
2023-03-10T12:29:35.749Z,5.97
2023-03-10T12:32:06.163Z,2.95
2023-03-10T12:34:34.997Z,1.65
2023-03-10T12:37:09.055Z,4.63
2023-03-10T12:39:40.177Z,3.53
2023-03-10T12:42:30.622Z,4.15
2023-03-10T12:45:18.823Z,3.67
2023-03-10T12:47:58.680Z,3.15
2023-03-10T12:50:36.238Z,5.53
2023-03-10T12:53:23.724Z,3.97
2023-03-10T12:56:19.714Z,5.55
2023-03-10T12:58:53.216Z,5.97
2023-03-10T13:01:24.673Z,7.13
2023-03-10T13:03:56.351Z,5.38
2023-03-10T13:06:30.711Z,3.83
2023-03-10T13:09:01.863Z,4.80
2023-03-10T13:11:37.686Z,6.72
2023-03-10T13:14:12.443Z,5.22
2023-03-10T13:16:40.642Z,5.05
2023-03-10T13:19:21.945Z,5.22
2023-03-10T13:21:51.154Z,6.40
2023-03-10T13:24:26.926Z,4.50
2023-03-10T13:27:08.781Z,5.45
2023-03-10T13:29:38.784Z,4.03
2023-03-10T13:32:08.172Z,4.90
2023-03-10T13:34:38.023Z,5.80
2023-03-10T13:37:07.591Z,5.80
2023-03-10T13:39:36.601Z,4.03
2023-03-10T13:42:15.117Z,3.42
2023-03-10T13:44:44.558Z,4.50
2023-03-10T13:47:17.589Z,5.53
2023-03-10T13:49:51.008Z,4.28
2023-03-10T13:52:21.608Z,5.60
2023-03-10T13:54:50.320Z,6.25
2023-03-10T13:57:25.374Z,6.60
2023-03-10T13:59:54.995Z,7.38
2023-03-10T14:02:32.463Z,2.60
2023-03-10T14:05:02.347Z,6.80
2023-03-10T14:07:32.862Z,5.05
2023-03-10T14:10:20.501Z,6.68
2023-03-10T14:12:50.546Z,8.45
2023-03-10T14:15:25.921Z,6.38
2023-03-10T14:18:18.881Z,4.82
2023-03-10T14:20:48.935Z,4.13
2023-03-10T14:23:29.386Z,7.20
2023-03-10T14:25:58.953Z,6.65
2023-03-10T14:28:29.339Z,3.78
2023-03-10T14:30:59.742Z,6.32
2023-03-10T14:33:27.895Z,7.10
2023-03-10T14:35:57.765Z,7.28
2023-03-10T14:38:25.962Z,4.85
2023-03-10T14:40:56.374Z,6.65
2023-03-10T14:43:26.694Z,4.93
2023-03-10T14:45:57.843Z,6.32
2023-03-10T14:48:28.921Z,5.15
2023-03-10T14:50:58.508Z,4.72
2023-03-10T14:53:27.723Z,4.85
2023-03-10T14:55:58.223Z,4.38
2023-03-10T14:58:31.151Z,7.85
2023-03-10T15:00:59.501Z,4.47
2023-03-10T15:03:28.165Z,4.68
2023-03-10T15:05:56.397Z,6.60
2023-03-10T15:08:28.071Z,9.55
2023-03-10T15:10:57.613Z,5.97
2023-03-10T15:13:26.130Z,7.93
2023-03-10T15:15:54.317Z,8.98
2023-03-10T15:18:27.224Z,7.78
2023-03-10T15:20:58.980Z,8.52
2023-03-10T15:23:29.609Z,8.73
2023-03-10T15:25:58.963Z,7.47
2023-03-10T15:28:27.123Z,8.27
2023-03-10T15:30:55.873Z,5.22
2023-03-10T15:33:24.146Z,6.20
2023-03-10T15:35:53.323Z,8.20
2023-03-10T15:38:21.652Z,3.00
2023-03-10T15:40:51.112Z,4.13
2023-03-10T15:43:19.203Z,8.55
2023-03-10T15:45:49.315Z,8.20
2023-03-10T15:48:17.609Z,8.73
2023-03-10T15:50:47.387Z,8.23
2023-03-10T15:53:16.022Z,4.93
2023-03-10T15:55:44.470Z,8.48
2023-03-10T15:58:14.108Z,6.75
2023-03-10T16:00:44.167Z,9.35
2023-03-10T16:03:12.578Z,4.22
2023-03-10T16:05:49.098Z,7.15
2023-03-10T16:08:18.951Z,6.45
2023-03-10T16:10:53.335Z,8.45
2023-03-10T16:13:23.928Z,9.50
2023-03-10T16:15:52.731Z,10.27
2023-03-10T16:18:20.878Z,6.43
2023-03-10T16:20:56.724Z,6.47
2023-03-10T16:23:25.279Z,7.65
2023-03-10T16:26:14.936Z,5.53
2023-03-10T16:28:47.623Z,8.82
2023-03-10T16:31:16.715Z,8.15
2023-03-10T16:33:47.545Z,8.02
2023-03-10T16:36:18.552Z,7.53
2023-03-10T16:38:46.983Z,6.97
2023-03-10T16:41:15.938Z,7.60
2023-03-10T16:43:46.421Z,10.32
2023-03-10T16:46:17.576Z,10.00
2023-03-10T16:48:47.482Z,8.95
2023-03-10T16:51:28.105Z,11.57
2023-03-10T16:53:58.078Z,9.73
2023-03-10T16:56:27.962Z,8.25
2023-03-10T16:58:59.478Z,10.23
2023-03-10T17:01:28.126Z,10.48
2023-03-10T17:03:57.030Z,12.68
2023-03-10T17:06:27.290Z,13.98
2023-03-10T17:08:56.105Z,10.98
2023-03-10T17:11:26.537Z,9.05
2023-03-10T17:13:55.755Z,11.35
2023-03-10T17:16:28.349Z,12.00
2023-03-10T17:18:58.147Z,5.90
2023-03-10T17:21:27.881Z,12.48
2023-03-10T17:23:56.813Z,10.85
2023-03-10T17:26:25.323Z,7.30
2023-03-10T17:28:53.858Z,10.35
2023-03-10T17:31:27.043Z,12.32
2023-03-10T17:33:56.468Z,13.32
2023-03-10T17:36:24.864Z,11.90
2023-03-10T17:38:54.495Z,6.18
2023-03-10T17:41:23.097Z,11.68
2023-03-10T17:43:52.217Z,10.77
2023-03-10T17:46:22.770Z,17.05
2023-03-10T17:48:53.148Z,10.93
2023-03-10T17:51:22.762Z,12.25
2023-03-10T17:53:51.124Z,14.00
2023-03-10T17:56:19.674Z,11.90
2023-03-10T17:58:47.812Z,13.63
2023-03-10T18:01:18.245Z,10.85
2023-03-10T18:03:48.360Z,14.80
2023-03-10T18:06:20.725Z,14.23
2023-03-10T18:08:49.208Z,13.60
2023-03-10T18:11:17.762Z,16.75
2023-03-10T18:13:46.495Z,14.13
2023-03-10T18:16:18.716Z,1.67
2023-03-10T18:18:47.190Z,17.70
2023-03-10T18:21:17.668Z,16.50
2023-03-10T18:23:46.570Z,19.40
2023-03-10T18:26:16.916Z,9.77
2023-03-10T18:28:45.024Z,7.03
2023-03-10T18:31:19.804Z,16.58
2023-03-10T18:33:48.619Z,16.27
2023-03-10T18:36:20.299Z,13.63
2023-03-10T18:38:48.981Z,16.17
2023-03-10T18:41:24.770Z,7.45
2023-03-10T18:43:53.442Z,16.20
2023-03-10T18:46:22.199Z,15.35
2023-03-10T18:48:55.648Z,18.85
2023-03-10T18:51:27.583Z,15.68
2023-03-10T18:53:56.229Z,14.93
2023-03-10T18:56:25.979Z,13.27
2023-03-10T18:58:54.318Z,13.73
2023-03-10T19:01:23.087Z,16.75
2023-03-10T19:03:51.703Z,14.05
2023-03-10T19:06:19.911Z,15.65
2023-03-10T19:08:51.711Z,14.35
2023-03-10T19:11:24.244Z,15.30
2023-03-10T19:13:52.946Z,17.23
2023-03-10T19:16:21.294Z,17.27
2023-03-10T19:18:49.618Z,14.25
2023-03-10T19:21:18.001Z,14.35
2023-03-10T19:23:46.424Z,18.95
2023-03-10T19:26:16.202Z,14.25
2023-03-10T19:28:44.545Z,14.88
2023-03-10T19:31:14.807Z,15.70
2023-03-10T19:33:43.055Z,15.00
2023-03-10T19:36:13.681Z,14.15
2023-03-10T19:38:43.048Z,10.57
2023-03-10T19:41:17.317Z,9.75
2023-03-10T19:43:46.756Z,12.57
2023-03-10T19:46:16.475Z,14.10
2023-03-10T19:48:45.513Z,10.65
2023-03-10T19:51:21.353Z,16.05
2023-03-10T19:53:49.500Z,14.23
2023-03-10T19:56:19.709Z,14.68
2023-03-10T19:58:48.870Z,4.80
2023-03-10T20:01:19.883Z,14.15
2023-03-10T20:03:48.143Z,12.70
2023-03-10T20:06:16.330Z,12.13
2023-03-10T20:08:44.437Z,13.55
2023-03-10T20:11:15.042Z,15.68
2023-03-10T20:13:45.004Z,14.35
2023-03-10T20:16:16.174Z,11.82
2023-03-10T20:18:44.291Z,16.23
2023-03-10T20:21:12.721Z,7.78
2023-03-10T20:23:40.835Z,9.13
2023-03-10T20:26:11.263Z,6.70
2023-03-10T20:28:40.404Z,15.82
2023-03-10T20:31:09.984Z,16.75
2023-03-10T20:33:38.684Z,16.65
2023-03-10T20:36:08.677Z,15.73
2023-03-10T20:38:37.088Z,11.07
2023-03-10T20:41:05.624Z,14.63
2023-03-10T20:43:34.237Z,12.52
2023-03-10T20:46:02.447Z,13.23
2023-03-10T20:48:32.366Z,11.85
2023-03-10T20:51:02.023Z,13.40
2023-03-10T20:53:32.236Z,11.43
2023-03-10T20:56:00.872Z,10.65
2023-03-10T20:58:29.822Z,9.25
2023-03-10T21:00:58.054Z,8.55
2023-03-10T21:03:27.223Z,6.20
2023-03-10T21:05:56.763Z,7.85
2023-03-10T21:08:24.874Z,4.25
2023-03-10T21:10:55.623Z,6.43
2023-03-10T21:13:23.752Z,7.07
2023-03-10T21:15:53.120Z,7.63
2023-03-10T21:18:21.603Z,5.53
2023-03-10T21:20:49.921Z,5.18
2023-03-10T21:23:19.533Z,4.43
2023-03-10T21:25:47.651Z,4.32
2023-03-10T21:28:16.936Z,5.72
2023-03-10T21:30:45.665Z,4.32
2023-03-10T21:33:13.968Z,3.97
2023-03-10T21:35:43.480Z,2.88
2023-03-10T21:38:11.862Z,2.45
2023-03-10T21:40:41.665Z,4.13
2023-03-10T21:43:11.214Z,4.30
2023-03-10T21:45:39.584Z,2.35
2023-03-10T21:48:08.840Z,1.65
2023-03-10T21:50:36.929Z,1.65
2023-03-10T21:53:05.826Z,2.63
2023-03-10T21:55:36.642Z,1.65
2023-03-10T21:58:06.682Z,1.88
2023-03-10T22:00:36.168Z,2.60
2023-03-10T22:03:05.379Z,1.70
2023-03-10T22:05:33.756Z,1.50
2023-03-10T22:08:01.881Z,1.20
2023-03-10T22:10:30.058Z,2.17
2023-03-10T22:12:58.254Z,2.10
2023-03-10T22:15:28.862Z,1.90
2023-03-10T22:17:57.021Z,2.00
2023-03-10T22:20:26.859Z,2.42
2023-03-10T22:22:55.543Z,2.67
2023-03-10T22:25:23.830Z,3.08
2023-03-10T22:27:54.518Z,1.77
2023-03-10T22:30:23.977Z,3.80
2023-03-10T22:32:54.332Z,2.45
2023-03-10T22:35:22.852Z,2.00
2023-03-10T22:37:51.436Z,2.65
2023-03-10T22:40:21.752Z,2.80
2023-03-10T22:42:50.383Z,3.55
2023-03-10T22:45:20.860Z,4.65
2023-03-10T22:47:50.426Z,2.38
2023-03-10T22:50:21.768Z,2.03
2023-03-10T22:52:50.168Z,2.70
2023-03-10T22:55:19.807Z,2.85
2023-03-10T22:57:48.129Z,1.90
2023-03-10T23:00:19.714Z,1.83
2023-03-10T23:02:48.899Z,1.92
2023-03-10T23:05:19.162Z,2.35
2023-03-10T23:07:47.916Z,1.40
2023-03-10T23:10:18.147Z,2.70
2023-03-10T23:12:46.335Z,2.03
2023-03-10T23:15:24.784Z,4.00
2023-03-10T23:17:53.974Z,2.95
2023-03-10T23:20:27.083Z,2.13
2023-03-10T23:22:57.415Z,3.10
2023-03-10T23:25:28.290Z,3.65
2023-03-10T23:27:57.034Z,3.42
2023-03-10T23:30:25.314Z,3.08
2023-03-10T23:32:55.019Z,4.50
2023-03-10T23:35:27.426Z,5.78
2023-03-10T23:37:56.082Z,2.75
2023-03-10T23:40:27.213Z,1.88
2023-03-10T23:42:56.648Z,2.22
2023-03-10T23:45:26.489Z,3.15
2023-03-10T23:47:55.869Z,2.28
2023-03-10T23:50:29.800Z,2.00
2023-03-10T23:52:58.489Z,4.47
2023-03-10T23:55:28.515Z,2.05
2023-03-10T23:57:57.064Z,3.10
